Disclaimer

Please do not use the information listed here in-flight or in-navigation, as they are not provided to us by the airports but are provided by volunteers, so they might be outdated.

Search


Regions


Airport information page

Radio informations:
RDO - 124.3 MHz

Airport informations:
Latitude: 34° 17' 05.60" N
Longitude: 129° 19' 49.98" E
Elevation: 213 feet - 65 meters
Operating hours: Remarks
Operating agency: Civil government, landing fees and diplomatic clearance may be required
Timezone: UTC+9
Fuel: Jet A, without icing inhibitor.

Runway information:
14/32 - 6234 x 150 feet< - >1900 x 46 meters

Recent METARs:
RJDT 180600Z VRB02KT 9999 FEW035 SCT080 BKN110 14/04 Q1018
RJDT 180600Z VRB02KT 9999 FEW035 SCT080 BKN110 14/04 Q1018
RJDT 180700Z VRB02KT CAVOK 14/05 Q1018

Airport on the map: